createdAt,value
2023-12-02T00:02:12.366Z,100499.88
2023-12-02T00:04:39.302Z,100494.81
2023-12-02T00:07:06.419Z,100506.00
2023-12-02T00:09:33.473Z,100495.16
2023-12-02T00:12:00.478Z,100525.44
2023-12-02T00:14:27.428Z,100514.53
2023-12-02T00:16:54.335Z,100518.25
2023-12-02T00:19:21.622Z,100524.84
2023-12-02T00:21:48.785Z,100494.94
2023-12-02T00:24:15.754Z,100528.44
2023-12-02T00:26:42.778Z,100524.75
2023-12-02T00:29:10.276Z,100519.56
2023-12-02T00:31:37.239Z,100532.75
2023-12-02T00:34:04.302Z,100513.72
2023-12-02T00:36:33.569Z,100526.91
2023-12-02T00:39:00.610Z,100522.63
2023-12-02T00:41:27.536Z,100526.97
2023-12-02T00:43:54.503Z,100524.22
2023-12-02T00:46:21.973Z,100470.63
2023-12-02T00:48:50.105Z,100519.75
2023-12-02T00:51:17.134Z,100493.06
2023-12-02T00:53:45.152Z,100502.22
2023-12-02T00:56:12.238Z,100514.47
2023-12-02T00:58:41.696Z,100512.03
2023-12-02T01:01:10.395Z,100497.53
2023-12-02T01:03:37.482Z,100511.47
2023-12-02T01:06:04.739Z,100514.56
2023-12-02T01:08:31.677Z,100522.28
2023-12-02T01:10:58.606Z,100521.88
2023-12-02T01:13:25.603Z,100492.38
2023-12-02T01:15:52.548Z,100510.22
2023-12-02T01:18:19.657Z,100514.72
2023-12-02T01:20:46.687Z,100519.94
2023-12-02T01:23:13.632Z,100515.47
2023-12-02T01:25:40.586Z,100508.56
2023-12-02T01:28:07.778Z,100510.22
2023-12-02T01:30:34.796Z,100492.78
2023-12-02T01:33:01.961Z,100516.81
2023-12-02T01:35:28.977Z,100509.31
2023-12-02T01:37:55.883Z,100519.34
2023-12-02T01:40:22.986Z,100520.13
2023-12-02T01:42:49.934Z,100519.53
2023-12-02T01:45:16.963Z,100522.53
2023-12-02T01:47:44.433Z,100512.41
2023-12-02T01:50:12.626Z,100527.22
2023-12-02T01:52:39.613Z,100529.00
2023-12-02T01:55:06.898Z,100519.25
2023-12-02T01:57:34.159Z,100511.25
2023-12-02T02:00:01.138Z,100517.06
2023-12-02T02:02:28.237Z,100526.25
2023-12-02T02:04:55.518Z,100515.75
2023-12-02T02:07:22.970Z,100499.38
2023-12-02T02:09:50.341Z,100525.69
2023-12-02T02:12:18.163Z,100528.31
2023-12-02T02:14:45.228Z,100521.59
2023-12-02T02:17:12.347Z,100496.56
2023-12-02T02:19:39.382Z,100518.50
2023-12-02T02:22:06.380Z,100527.22
2023-12-02T02:24:33.337Z,100534.91
2023-12-02T02:27:00.930Z,100507.38
2023-12-02T02:29:27.916Z,100539.41
2023-12-02T02:31:54.891Z,100536.88
2023-12-02T02:34:21.922Z,100534.25
2023-12-02T02:36:48.922Z,100537.84
2023-12-02T02:39:15.940Z,100535.84
2023-12-02T02:41:42.954Z,100525.16
2023-12-02T02:44:09.896Z,100493.28
2023-12-02T02:46:36.893Z,100521.56
2023-12-02T02:49:04.208Z,100502.81
2023-12-02T02:51:31.269Z,100527.16
2023-12-02T02:53:58.294Z,100525.63
2023-12-02T02:56:25.243Z,100522.28
2023-12-02T02:58:52.539Z,100525.91
2023-12-02T03:01:19.547Z,100504.19
2023-12-02T03:03:46.610Z,100521.66
2023-12-02T03:06:13.755Z,100524.31
2023-12-02T03:08:40.825Z,100502.75
2023-12-02T03:11:08.210Z,100516.41
2023-12-02T03:13:35.170Z,100504.38
2023-12-02T03:16:02.087Z,100525.00
2023-12-02T03:18:29.243Z,100525.25
2023-12-02T03:20:56.276Z,100520.00
2023-12-02T03:23:23.213Z,100533.50
2023-12-02T03:25:50.198Z,100487.75
2023-12-02T03:28:17.228Z,100534.31
2023-12-02T03:30:44.184Z,100530.06
2023-12-02T03:33:11.556Z,100530.22
2023-12-02T03:35:38.542Z,100530.97
2023-12-02T03:38:05.512Z,100541.25
2023-12-02T03:40:32.591Z,100532.59
2023-12-02T03:42:59.990Z,100527.31
2023-12-02T03:45:27.307Z,100523.19
2023-12-02T03:47:54.484Z,100517.97
2023-12-02T03:50:21.451Z,100550.16
2023-12-02T03:52:48.382Z,100534.66
2023-12-02T03:55:15.419Z,100512.38
2023-12-02T03:57:42.341Z,100505.50
2023-12-02T04:00:13.041Z,100542.56
2023-12-02T04:02:40.958Z,100540.78
2023-12-02T04:05:09.633Z,100477.88
2023-12-02T04:07:37.874Z,100538.13
2023-12-02T04:10:05.542Z,100529.31
2023-12-02T04:12:33.159Z,100541.78
2023-12-02T04:15:01.991Z,100540.69
2023-12-02T04:17:30.110Z,100510.34
2023-12-02T04:19:57.268Z,100532.66
2023-12-02T04:22:24.200Z,100547.44
2023-12-02T04:24:51.341Z,100546.78
2023-12-02T04:27:18.350Z,100519.25
2023-12-02T04:29:45.287Z,100556.94
2023-12-02T04:32:13.139Z,100555.13
2023-12-02T04:34:40.242Z,100548.06
2023-12-02T04:37:07.340Z,100561.03
2023-12-02T04:39:34.889Z,100553.88
2023-12-02T04:42:02.103Z,100559.34
2023-12-02T04:44:29.056Z,100557.69
2023-12-02T04:46:56.081Z,100549.06
2023-12-02T04:49:23.203Z,100555.69
2023-12-02T04:51:50.227Z,100554.97
2023-12-02T04:54:17.191Z,100549.16
2023-12-02T04:56:44.216Z,100569.16
2023-12-02T04:59:11.133Z,100550.69
2023-12-02T05:01:39.409Z,100570.22
2023-12-02T05:04:06.962Z,100560.34
2023-12-02T05:06:34.157Z,100545.81
2023-12-02T05:09:01.153Z,100557.25
2023-12-02T05:11:28.537Z,100526.84
2023-12-02T05:13:55.479Z,100556.09
2023-12-02T05:16:22.522Z,100556.91
2023-12-02T05:18:49.508Z,100557.00
2023-12-02T05:21:17.145Z,100559.63
2023-12-02T05:23:44.300Z,100564.97
2023-12-02T05:26:11.309Z,100562.25
2023-12-02T05:28:39.740Z,100565.47
2023-12-02T05:31:07.688Z,100566.38
2023-12-02T05:33:34.666Z,100567.97
2023-12-02T05:36:01.726Z,100557.81
2023-12-02T05:38:28.679Z,100571.66
2023-12-02T05:40:55.720Z,100569.78
2023-12-02T05:43:22.630Z,100569.03
2023-12-02T05:45:50.441Z,100562.00
2023-12-02T05:48:18.152Z,100575.13
2023-12-02T05:50:45.308Z,100567.28
2023-12-02T05:53:12.669Z,100561.09
2023-12-02T05:55:39.929Z,100571.72
2023-12-02T05:58:06.946Z,100567.13
2023-12-02T06:00:36.676Z,100565.53
2023-12-02T06:03:04.221Z,100571.38
2023-12-02T06:05:31.229Z,100569.66
2023-12-02T06:07:58.195Z,100569.00
2023-12-02T06:10:25.163Z,100584.50
2023-12-02T06:12:52.088Z,100577.50
2023-12-02T06:15:19.659Z,100580.19
2023-12-02T06:17:47.576Z,100580.00
2023-12-02T06:20:14.579Z,100579.91
2023-12-02T06:22:41.712Z,100562.06
2023-12-02T06:25:08.996Z,100588.75
2023-12-02T06:27:35.960Z,100594.91
2023-12-02T06:30:03.158Z,100560.31
2023-12-02T06:32:30.316Z,100583.59
2023-12-02T06:34:57.405Z,100593.91
2023-12-02T06:37:25.292Z,100592.22
2023-12-02T06:39:52.331Z,100590.63
2023-12-02T06:42:19.261Z,100595.03
2023-12-02T06:44:46.639Z,100530.97
2023-12-02T06:47:14.457Z,100594.09
2023-12-02T06:49:41.639Z,100605.41
2023-12-02T06:52:09.262Z,100616.03
2023-12-02T06:54:39.721Z,100604.63
2023-12-02T06:57:07.596Z,100621.31
2023-12-02T06:59:34.827Z,100608.28
2023-12-02T07:02:01.791Z,100624.78
2023-12-02T07:04:28.852Z,100605.78
2023-12-02T07:06:56.032Z,100578.34
2023-12-02T07:09:23.188Z,100628.44
2023-12-02T07:11:50.100Z,100638.09
2023-12-02T07:14:17.047Z,100635.38
2023-12-02T07:16:44.172Z,100639.91
2023-12-02T07:19:11.196Z,100626.13
2023-12-02T07:21:38.236Z,100641.84
2023-12-02T07:24:05.969Z,100609.91
2023-12-02T07:26:32.944Z,100646.03
2023-12-02T07:28:59.882Z,100639.94
2023-12-02T07:31:26.783Z,100648.75
2023-12-02T07:33:55.932Z,100658.91
2023-12-02T07:36:23.102Z,100626.78
2023-12-02T07:38:50.023Z,100659.81
2023-12-02T07:41:16.935Z,100655.47
2023-12-02T07:43:43.968Z,100655.53
2023-12-02T07:46:11.027Z,100646.13
2023-12-02T07:48:38.053Z,100674.06
2023-12-02T07:51:06.808Z,100658.25
2023-12-02T07:53:33.779Z,100666.03
2023-12-02T07:56:00.862Z,100651.44
2023-12-02T07:58:27.872Z,100665.44
2023-12-02T08:00:55.058Z,100680.41
2023-12-02T08:03:24.106Z,100677.53
2023-12-02T08:05:52.452Z,100674.78
2023-12-02T08:08:19.445Z,100673.75
2023-12-02T08:10:48.447Z,100674.75
2023-12-02T08:13:15.492Z,100654.88
2023-12-02T08:15:42.478Z,100689.50
2023-12-02T08:18:09.386Z,100687.75
2023-12-02T08:20:36.343Z,100685.91
2023-12-02T08:23:03.417Z,100670.31
2023-12-02T08:25:30.450Z,100684.81
2023-12-02T08:27:57.503Z,100704.00
2023-12-02T08:30:24.571Z,100691.88
2023-12-02T08:32:51.586Z,100671.19
2023-12-02T08:35:18.626Z,100685.75
2023-12-02T08:37:45.663Z,100665.88
2023-12-02T08:40:13.913Z,100706.41
2023-12-02T08:42:40.997Z,100702.00
2023-12-02T08:45:08.746Z,100704.09
2023-12-02T08:47:35.698Z,100705.97
2023-12-02T08:50:02.713Z,100693.88
2023-12-02T08:52:29.724Z,100720.66
2023-12-02T08:54:56.683Z,100724.31
2023-12-02T08:57:23.657Z,100724.44
2023-12-02T08:59:50.930Z,100714.59
2023-12-02T09:02:18.144Z,100703.34
2023-12-02T09:04:45.236Z,100718.72
2023-12-02T09:07:12.263Z,100672.06
2023-12-02T09:09:39.178Z,100705.66
2023-12-02T09:12:06.766Z,100722.06
2023-12-02T09:14:33.722Z,100728.38
2023-12-02T09:17:00.698Z,100709.19
2023-12-02T09:19:30.686Z,100724.84
2023-12-02T09:21:57.671Z,100730.75
2023-12-02T09:24:41.723Z,100725.31
2023-12-02T09:27:09.371Z,100742.78
2023-12-02T09:29:39.770Z,100736.88
2023-12-02T09:32:10.824Z,100732.22
2023-12-02T09:34:43.666Z,100732.22
2023-12-02T09:37:50.854Z,100737.44
2023-12-02T09:40:26.780Z,100742.78
2023-12-02T09:43:11.956Z,100719.22
2023-12-02T09:46:20.996Z,100758.69
2023-12-02T09:49:05.817Z,100736.69
2023-12-02T09:51:59.805Z,100721.22
2023-12-02T09:54:51.542Z,100740.69
2023-12-02T09:57:37.241Z,100746.06
2023-12-02T10:00:14.465Z,100740.16
2023-12-02T10:03:12.765Z,100753.94
2023-12-02T10:06:05.711Z,100747.59
2023-12-02T10:09:32.145Z,100746.50
2023-12-02T10:12:37.051Z,100756.31
2023-12-02T10:15:06.868Z,100747.47
2023-12-02T10:17:51.294Z,100744.66
2023-12-02T10:20:29.836Z,100749.81
2023-12-02T10:23:11.992Z,100721.47
2023-12-02T10:25:53.870Z,100744.94
2023-12-02T10:28:29.703Z,100719.38
2023-12-02T10:31:01.097Z,100754.13
2023-12-02T10:33:41.175Z,100749.50
2023-12-02T10:36:11.468Z,100746.91
2023-12-02T10:39:14.228Z,100740.09
2023-12-02T10:41:53.077Z,100739.97
2023-12-02T10:44:22.943Z,100732.38
2023-12-02T10:46:50.914Z,100702.81
2023-12-02T10:49:18.444Z,100725.00
2023-12-02T10:52:40.534Z,100729.38
2023-12-02T10:54:42.221Z,100744.41
2023-12-02T10:57:10.128Z,100758.72
2023-12-02T11:00:09.002Z,100744.53
2023-12-02T11:02:46.533Z,100740.84
2023-12-02T11:05:22.797Z,100738.56
2023-12-02T11:07:57.094Z,100740.22
2023-12-02T11:10:49.894Z,100736.59
2023-12-02T11:13:21.670Z,100739.41
2023-12-02T11:15:51.258Z,100742.88
2023-12-02T11:18:46.859Z,100747.53
2023-12-02T11:21:52.298Z,100743.69
2023-12-02T11:24:40.120Z,100748.16
2023-12-02T11:27:44.675Z,100744.69
2023-12-02T11:30:47.134Z,100749.59
2023-12-02T11:33:55.865Z,100745.22
2023-12-02T11:36:50.160Z,100743.09
2023-12-02T11:39:41.770Z,100746.47
2023-12-02T11:42:19.675Z,100755.03
2023-12-02T11:45:06.925Z,100743.69
2023-12-02T11:47:52.618Z,100745.66
2023-12-02T11:50:44.211Z,100752.19
2023-12-02T11:53:42.232Z,100739.75
2023-12-02T11:56:15.700Z,100748.78
2023-12-02T11:59:12.125Z,100742.88
2023-12-02T12:02:03.361Z,100727.97
2023-12-02T12:05:00.518Z,100740.94
2023-12-02T12:08:08.553Z,100730.28
2023-12-02T12:10:38.482Z,100752.03
2023-12-02T12:13:09.903Z,100750.03
2023-12-02T12:15:37.960Z,100745.72
2023-12-02T12:18:05.859Z,100751.66
2023-12-02T12:20:33.358Z,100753.38
2023-12-02T12:23:01.583Z,100701.50
2023-12-02T12:25:30.482Z,100749.94
2023-12-02T12:28:07.746Z,100753.16
2023-12-02T12:30:49.356Z,100754.72
2023-12-02T12:33:21.949Z,100755.59
2023-12-02T12:35:50.131Z,100722.28
2023-12-02T12:38:17.718Z,100753.44
2023-12-02T12:40:46.068Z,100768.53
2023-12-02T12:43:14.748Z,100776.44
2023-12-02T12:45:42.728Z,100755.31
2023-12-02T12:48:11.835Z,100720.75
2023-12-02T12:50:39.863Z,100795.63
2023-12-02T12:53:12.530Z,100776.06
2023-12-02T12:55:48.557Z,100778.41
2023-12-02T12:58:18.301Z,100773.41
2023-12-02T13:00:51.199Z,100754.16
2023-12-02T13:04:14.233Z,100783.41
2023-12-02T13:06:48.778Z,100778.19
2023-12-02T13:09:31.687Z,100783.19
2023-12-02T13:12:13.829Z,100788.34
2023-12-02T13:15:07.360Z,100764.84
2023-12-02T13:17:38.096Z,100767.47
2023-12-02T13:20:08.666Z,100774.28
2023-12-02T13:22:36.985Z,100779.53
2023-12-02T13:25:19.578Z,100769.84
2023-12-02T13:27:57.208Z,100796.63
2023-12-02T13:30:25.575Z,100803.72
2023-12-02T13:33:00.911Z,100799.06
2023-12-02T13:35:31.701Z,100798.88
2023-12-02T13:38:36.062Z,100804.34
2023-12-02T13:41:39.108Z,100804.69
2023-12-02T13:44:08.282Z,100787.66
2023-12-02T13:46:47.736Z,100794.38
2023-12-02T13:49:26.328Z,100801.06
2023-12-02T13:52:24.407Z,100814.06
2023-12-02T13:55:16.817Z,100821.19
2023-12-02T13:58:22.017Z,100816.78
2023-12-02T14:01:10.620Z,100824.56
2023-12-02T14:04:26.918Z,100820.09
2023-12-02T14:07:21.107Z,100829.59
2023-12-02T14:09:48.171Z,100717.88
2023-12-02T14:12:48.808Z,100841.13
2023-12-02T14:16:09.328Z,100841.50
2023-12-02T14:19:31.284Z,100860.91
2023-12-02T14:22:23.848Z,100837.91
2023-12-02T14:25:05.551Z,100858.28
2023-12-02T14:28:05.381Z,100860.75
2023-12-02T14:30:51.842Z,100854.09
2023-12-02T14:33:56.073Z,100868.53
2023-12-02T14:36:47.471Z,100852.50
2023-12-02T14:40:02.797Z,100858.16
2023-12-02T14:43:26.991Z,100889.88
2023-12-02T14:45:58.495Z,100897.63
2023-12-02T14:48:28.608Z,100888.38
2023-12-02T14:50:58.093Z,100892.47
2023-12-02T14:53:37.462Z,100896.56
2023-12-02T14:56:30.588Z,100901.75
2023-12-02T14:59:00.440Z,100910.88
2023-12-02T15:01:41.303Z,100898.97
2023-12-02T15:04:09.029Z,100910.03
2023-12-02T15:06:40.980Z,100900.38
2023-12-02T15:09:08.570Z,100890.47
2023-12-02T15:11:37.140Z,100932.81
2023-12-02T15:14:04.790Z,100922.63
2023-12-02T15:16:33.222Z,100906.38
2023-12-02T15:19:10.369Z,100921.13
2023-12-02T15:22:18.570Z,100935.66
2023-12-02T15:24:45.641Z,100930.72
2023-12-02T15:27:12.628Z,100914.72
2023-12-02T15:29:39.656Z,100909.69
2023-12-02T15:32:07.164Z,100933.44
2023-12-02T15:34:34.516Z,100940.88
2023-12-02T15:37:01.650Z,100929.25
2023-12-02T15:39:29.943Z,100962.13
2023-12-02T15:41:57.146Z,100957.09
2023-12-02T15:44:24.398Z,100977.38
2023-12-02T15:46:51.321Z,100950.28
2023-12-02T15:49:25.575Z,100944.00
2023-12-02T15:51:54.055Z,100963.09
2023-12-02T15:54:23.937Z,100951.72
2023-12-02T15:56:53.480Z,100952.00
2023-12-02T15:59:23.914Z,100969.94
2023-12-02T16:01:52.145Z,100975.38
2023-12-02T16:04:19.605Z,100950.34
2023-12-02T16:06:48.560Z,100960.09
2023-12-02T16:09:24.272Z,100989.63
2023-12-02T16:11:53.384Z,100971.78
2023-12-02T16:14:23.511Z,101008.28
2023-12-02T16:16:58.489Z,100996.97
2023-12-02T16:19:26.940Z,101004.44
2023-12-02T16:21:56.329Z,101011.38
2023-12-02T16:24:23.546Z,101014.63
2023-12-02T16:26:50.745Z,100973.31
2023-12-02T16:29:19.973Z,101014.38
2023-12-02T16:31:47.092Z,100999.88
2023-12-02T16:34:15.045Z,101000.47
2023-12-02T16:36:44.021Z,101042.06
2023-12-02T16:39:13.836Z,101029.19
2023-12-02T16:41:43.350Z,101016.28
2023-12-02T16:44:10.518Z,101004.63
2023-12-02T16:46:42.880Z,101029.84
2023-12-02T16:49:19.377Z,101028.16
2023-12-02T16:51:47.027Z,101034.56
2023-12-02T16:54:15.210Z,101032.66
2023-12-02T16:56:43.049Z,101060.91
2023-12-02T17:00:00.698Z,101058.78
2023-12-02T17:02:40.004Z,101043.38
2023-12-02T17:05:38.072Z,101067.84
2023-12-02T17:08:23.335Z,101041.13
2023-12-02T17:11:04.265Z,101069.56
2023-12-02T17:13:36.887Z,101067.69
2023-12-02T17:16:32.425Z,101078.25
2023-12-02T17:19:00.369Z,101069.31
2023-12-02T17:21:54.645Z,101079.81
2023-12-02T17:24:33.878Z,101077.88
2023-12-02T17:27:02.971Z,101088.41
2023-12-02T17:29:32.357Z,101066.53
2023-12-02T17:32:00.549Z,101084.16
2023-12-02T17:34:28.971Z,101083.28
2023-12-02T17:36:57.148Z,101053.81
2023-12-02T17:39:24.849Z,101100.72
2023-12-02T17:41:52.389Z,101083.44
2023-12-02T17:44:20.395Z,101098.22
2023-12-02T17:46:49.105Z,101108.78
2023-12-02T17:49:16.891Z,101094.81
2023-12-02T17:51:44.783Z,101101.00
2023-12-02T17:54:11.905Z,101101.81
2023-12-02T17:56:39.644Z,101108.16
2023-12-02T17:59:06.843Z,101086.47
2023-12-02T18:01:34.194Z,101073.44
2023-12-02T18:04:01.910Z,101103.00
2023-12-02T18:06:29.138Z,101099.47
2023-12-02T18:08:56.194Z,101089.00
2023-12-02T18:11:23.421Z,101102.63
2023-12-02T18:13:50.483Z,101104.59
2023-12-02T18:16:17.645Z,101087.00
2023-12-02T18:18:44.839Z,101113.97
2023-12-02T18:21:12.477Z,101103.53
2023-12-02T18:23:39.822Z,101068.94
2023-12-02T18:26:08.696Z,101093.31
2023-12-02T18:28:35.701Z,101119.47
2023-12-02T18:31:04.322Z,101116.88
2023-12-02T18:33:31.505Z,101113.13
2023-12-02T18:35:58.759Z,101125.06
2023-12-02T18:38:27.112Z,101124.16
2023-12-02T18:40:54.743Z,101117.25
2023-12-02T18:43:21.753Z,101101.06
2023-12-02T18:45:48.816Z,101105.66
2023-12-02T18:48:15.989Z,101124.09
2023-12-02T18:50:43.060Z,101126.81
2023-12-02T18:53:09.963Z,101134.94
2023-12-02T18:55:37.029Z,101087.22
2023-12-02T18:58:03.970Z,101103.16
2023-12-02T19:00:31.221Z,101143.25
2023-12-02T19:02:58.270Z,101114.81
2023-12-02T19:05:25.412Z,101127.69
2023-12-02T19:07:52.448Z,101125.28
2023-12-02T19:10:22.239Z,101133.97
2023-12-02T19:12:50.187Z,101148.00
2023-12-02T19:15:17.800Z,101137.00
2023-12-02T19:17:45.504Z,101152.63
2023-12-02T19:20:12.869Z,101123.28
2023-12-02T19:22:40.158Z,101128.56
2023-12-02T19:25:07.953Z,101140.81
2023-12-02T19:27:35.104Z,101126.97
2023-12-02T19:30:03.429Z,101134.03
2023-12-02T19:32:30.644Z,101165.41
2023-12-02T19:34:59.008Z,101132.50
2023-12-02T19:37:26.614Z,101146.25
2023-12-02T19:39:53.610Z,101121.00
2023-12-02T19:42:22.464Z,101153.94
2023-12-02T19:44:49.574Z,101170.53
2023-12-02T19:47:16.594Z,101159.13
2023-12-02T19:49:43.599Z,101138.38
2023-12-02T19:52:10.619Z,101126.97
2023-12-02T19:54:37.645Z,101159.94
2023-12-02T19:57:05.732Z,101176.41
2023-12-02T19:59:33.595Z,101134.81
2023-12-02T20:02:00.877Z,101159.22
2023-12-02T20:04:27.936Z,101175.59
2023-12-02T20:06:55.259Z,101188.22
2023-12-02T20:09:23.176Z,101183.00
2023-12-02T20:11:50.364Z,101156.00
2023-12-02T20:14:18.747Z,101193.91
2023-12-02T20:16:46.047Z,101190.25
2023-12-02T20:19:13.367Z,101155.47
2023-12-02T20:21:41.376Z,101163.38
2023-12-02T20:24:09.331Z,101154.47
2023-12-02T20:26:36.446Z,101175.41
2023-12-02T20:29:03.601Z,101207.47
2023-12-02T20:31:30.600Z,101204.09
2023-12-02T20:33:57.690Z,101211.84
2023-12-02T20:36:24.666Z,101174.38
2023-12-02T20:38:51.875Z,101207.28
2023-12-02T20:41:18.908Z,101219.66
2023-12-02T20:43:46.926Z,101214.38
2023-12-02T20:46:14.191Z,101212.75
2023-12-02T20:48:45.757Z,101212.50
2023-12-02T20:51:13.033Z,101196.00
2023-12-02T20:53:40.257Z,101171.88
2023-12-02T20:56:08.143Z,101196.25
2023-12-02T20:58:35.106Z,101205.69
2023-12-02T21:01:02.112Z,101180.81
2023-12-02T21:03:29.151Z,101200.66
2023-12-02T21:05:56.532Z,101214.66
2023-12-02T21:08:23.770Z,101177.28
2023-12-02T21:10:50.848Z,101183.22
2023-12-02T21:13:17.855Z,101208.22
2023-12-02T21:15:45.066Z,101208.28
2023-12-02T21:18:13.322Z,101191.16
2023-12-02T21:20:41.368Z,101214.53
2023-12-02T21:23:09.646Z,101209.19
2023-12-02T21:25:36.946Z,101205.59
2023-12-02T21:28:05.583Z,101207.28
2023-12-02T21:30:45.188Z,101172.44
2023-12-02T21:33:16.540Z,101202.88
2023-12-02T21:35:54.955Z,101185.44
2023-12-02T21:38:46.894Z,101198.53
2023-12-02T21:41:18.270Z,101205.72
2023-12-02T21:43:47.068Z,101171.88
2023-12-02T21:46:24.458Z,101199.00
2023-12-02T21:49:04.049Z,101201.47
2023-12-02T21:51:35.524Z,101169.72
2023-12-02T21:54:05.552Z,101192.94
2023-12-02T21:56:43.118Z,101199.19
2023-12-02T21:59:23.524Z,101202.78
2023-12-02T22:01:55.774Z,101174.84
2023-12-02T22:04:25.757Z,101206.78
2023-12-02T22:06:56.552Z,101205.09
2023-12-02T22:09:39.962Z,101216.31
2023-12-02T22:12:22.374Z,101208.34
2023-12-02T22:14:50.319Z,101194.41
2023-12-02T22:17:23.729Z,101219.94
2023-12-02T22:19:53.167Z,101230.03
2023-12-02T22:23:00.344Z,101232.22
2023-12-02T22:25:30.232Z,101231.75
2023-12-02T22:28:15.870Z,101230.34
2023-12-02T22:30:50.341Z,101230.34
2023-12-02T22:33:22.963Z,101189.69
2023-12-02T22:36:02.888Z,101201.84
2023-12-02T22:38:42.930Z,101228.72
2023-12-02T22:41:12.123Z,101251.72
2023-12-02T22:43:49.737Z,101249.91
2023-12-02T22:46:21.509Z,101248.16
2023-12-02T22:48:51.675Z,101236.25
2023-12-02T22:51:25.407Z,101234.06
2023-12-02T22:53:53.514Z,101237.63
2023-12-02T22:56:22.469Z,101233.19
2023-12-02T22:58:53.202Z,101232.72
2023-12-02T23:01:33.406Z,101246.66
2023-12-02T23:04:15.752Z,101244.41
2023-12-02T23:06:43.060Z,101238.16
2023-12-02T23:09:29.301Z,101271.16
2023-12-02T23:11:57.653Z,101247.59
2023-12-02T23:15:07.360Z,101214.63
2023-12-02T23:17:37.643Z,101252.13
2023-12-02T23:20:10.259Z,101231.50
2023-12-02T23:22:37.725Z,101233.56
2023-12-02T23:25:17.280Z,101256.41
2023-12-02T23:27:49.481Z,101255.44
2023-12-02T23:30:19.481Z,101243.78
2023-12-02T23:32:47.002Z,101234.06
2023-12-02T23:35:25.546Z,101246.22
2023-12-02T23:37:54.245Z,101232.50
2023-12-02T23:40:32.989Z,101256.75
2023-12-02T23:43:04.076Z,101226.28
2023-12-02T23:45:31.262Z,101257.34
2023-12-02T23:47:58.322Z,101252.09
2023-12-02T23:50:25.433Z,101256.03
2023-12-02T23:52:52.774Z,101261.13
2023-12-02T23:55:19.779Z,101257.84
2023-12-02T23:57:48.397Z,101260.88
